Time;durP1;ratioP1;P1;durP2;ratioP2;P2;SDS_P1;SDS_P2;PMS_P1;PMS_P2;Temp;Humidity;BMP_temperature;BMP_pressure;BME280_temperature;BME280_humidity;BME280_pressure;Samples;Min_cycle;Max_cycle;Signal;HPM_P1;HPM_P2
2023/07/09 00:02:19;;;;;;;4.73;4.10;;;21.80;1.00;;;;;;5095094;28;20679;-46
2023/07/09 00:04:45;;;;;;;6.33;4.00;;;21.80;1.00;;;;;;5094972;28;20626;-45
2023/07/09 00:07:28;;;;;;;8.13;4.03;;;21.80;1.00;;;;;;5095252;28;20258;-46
2023/07/09 00:09:55;;;;;;;6.53;4.00;;;21.70;1.00;;;;;;5094979;28;20620;-47
2023/07/09 00:12:21;;;;;;;6.27;4.37;;;21.70;1.00;;;;;;5095861;28;20183;-46
2023/07/09 00:14:46;;;;;;;7.10;4.77;;;21.70;1.00;;;;;;5095066;28;20202;-46
2023/07/09 00:17:20;;;;;;;7.47;4.20;;;21.60;1.00;;;;;;5094881;28;20258;-47
2023/07/09 00:19:45;;;;;;;5.97;4.40;;;21.60;1.00;;;;;;5094891;28;20167;-46
2023/07/09 00:22:16;;;;;;;8.53;4.43;;;21.60;1.00;;;;;;5095022;28;20540;-47
2023/07/09 00:24:47;;;;;;;8.57;4.57;;;21.60;1.00;;;;;;5094720;28;20794;-47
2023/07/09 00:27:14;;;;;;;7.57;4.60;;;21.60;1.00;;;;;;5094626;28;20677;-48
2023/07/09 00:29:44;;;;;;;9.57;4.27;;;21.50;1.00;;;;;;5094885;28;20171;-45
2023/07/09 00:32:20;;;;;;;5.90;4.10;;;21.50;1.00;;;;;;5094520;28;20167;-47
2023/07/09 00:34:48;;;;;;;10.10;4.87;;;21.50;1.00;;;;;;5094471;28;20248;-44
2023/07/09 00:37:16;;;;;;;8.90;4.97;;;21.40;1.00;;;;;;5094669;28;20189;-45
2023/07/09 00:39:42;;;;;;;7.77;4.77;;;21.40;1.00;;;;;;5094179;28;20670;-43
2023/07/09 00:42:23;;;;;;;8.07;4.50;;;21.50;1.00;;;;;;5093094;28;20193;-43
2023/07/09 00:44:52;;;;;;;6.70;4.23;;;21.30;1.00;;;;;;5094205;28;20237;-42
2023/07/09 00:47:26;;;;;;;7.63;4.40;;;21.30;1.00;;;;;;5094286;28;20662;-44
2023/07/09 00:50:22;;;;;;;10.80;4.53;;;21.30;1.00;;;;;;5095161;28;20242;-46
2023/07/09 00:53:02;;;;;;;6.87;4.57;;;21.30;48.10;;;;;;5093567;28;20198;-46
2023/07/09 00:55:32;;;;;;;7.10;4.47;;;21.20;99.90;;;;;;5094859;28;20207;-46
2023/07/09 00:58:02;;;;;;;10.00;4.77;;;21.20;99.90;;;;;;5093783;28;20189;-47
2023/07/09 01:00:42;;;;;;;8.03;4.40;;;21.10;99.90;;;;;;5094371;28;20677;-46
2023/07/09 01:03:10;;;;;;;7.23;4.33;;;21.10;99.90;;;;;;5094292;28;20231;-46
2023/07/09 01:05:37;;;;;;;7.30;4.40;;;21.10;99.90;;;;;;5093789;28;20699;-46
2023/07/09 01:08:03;;;;;;;6.17;4.07;;;21.00;99.90;;;;;;5093987;28;20186;-45
2023/07/09 01:10:28;;;;;;;7.87;4.37;;;21.00;99.90;;;;;;5094175;28;20179;-47
2023/07/09 01:12:54;;;;;;;8.60;4.60;;;20.90;99.90;;;;;;5093815;28;20175;-46
2023/07/09 01:15:20;;;;;;;7.27;4.10;;;20.90;99.90;;;;;;5093776;28;20198;-47
2023/07/09 01:17:45;;;;;;;6.47;4.17;;;20.80;99.90;;;;;;5093763;28;20194;-46
2023/07/09 01:20:20;;;;;;;8.10;4.90;;;20.70;99.90;;;;;;5093982;28;20187;-46
2023/07/09 01:22:50;;;;;;;6.87;4.70;;;20.70;99.90;;;;;;5094015;28;20158;-44
2023/07/09 01:25:16;;;;;;;7.07;5.00;;;20.70;99.90;;;;;;5093690;28;20633;-47
2023/07/09 01:27:46;;;;;;;5.33;3.90;;;20.60;99.90;;;;;;5093868;28;20587;-46
2023/07/09 01:30:33;;;;;;;7.33;4.47;;;20.60;1.00;;;;;;5093785;28;20600;-46
2023/07/09 01:33:00;;;;;;;6.67;4.53;;;20.50;1.00;;;;;;5093802;28;20669;-47
2023/07/09 01:35:28;;;;;;;7.67;4.50;;;20.50;1.00;;;;;;5093605;28;20194;-45
2023/07/09 01:37:55;;;;;;;8.70;5.43;;;20.40;1.00;;;;;;5093393;28;20179;-46
2023/07/09 01:40:23;;;;;;;7.43;4.93;;;20.40;1.00;;;;;;5093457;28;20195;-47
2023/07/09 01:42:50;;;;;;;7.37;4.97;;;20.40;1.00;;;;;;5093375;28;20186;-45
2023/07/09 01:45:16;;;;;;;8.40;4.53;;;20.30;1.00;;;;;;5093517;28;20279;-47
2023/07/09 01:47:42;;;;;;;7.17;4.33;;;20.30;1.00;;;;;;5093371;28;20171;-46
2023/07/09 01:50:09;;;;;;;7.20;4.83;;;20.20;1.00;;;;;;5093524;28;20265;-43
2023/07/09 01:52:37;;;;;;;7.73;4.60;;;20.20;1.00;;;;;;5093639;28;20175;-43
2023/07/09 01:55:03;;;;;;;7.20;4.60;;;20.10;1.00;;;;;;5093405;28;20281;-44
2023/07/09 01:57:35;;;;;;;10.30;5.10;;;20.10;1.00;;;;;;5093374;28;20186;-44
2023/07/09 02:00:05;;;;;;;6.30;4.50;;;20.10;1.00;;;;;;5093642;28;20172;-43
2023/07/09 02:02:32;;;;;;;7.80;4.63;;;20.10;1.00;;;;;;5094200;28;20654;-43
2023/07/09 02:04:58;;;;;;;10.47;4.50;;;20.00;1.00;;;;;;5093199;28;20217;-43
2023/07/09 02:07:24;;;;;;;8.77;4.47;;;20.00;1.00;;;;;;5094609;28;20186;-44
2023/07/09 02:09:51;;;;;;;8.30;4.70;;;20.00;1.00;;;;;;5098387;28;20185;-43
2023/07/09 02:12:17;;;;;;;8.43;5.00;;;20.00;1.00;;;;;;5097664;28;20178;-42
2023/07/09 02:14:44;;;;;;;10.20;4.63;;;19.90;1.00;;;;;;5098453;28;20200;-42
2023/07/09 02:17:11;;;;;;;8.37;5.20;;;19.90;1.00;;;;;;5098231;28;20183;-44
2023/07/09 02:19:37;;;;;;;6.63;4.80;;;19.90;1.00;;;;;;5098230;28;20183;-44
2023/07/09 02:22:03;;;;;;;9.03;4.97;;;19.90;1.00;;;;;;5097800;28;20182;-42
2023/07/09 02:24:29;;;;;;;9.43;4.77;;;19.80;1.00;;;;;;5096883;28;20199;-43
2023/07/09 02:26:55;;;;;;;12.47;5.50;;;19.90;1.00;;;;;;5097301;28;20631;-44
2023/07/09 02:29:21;;;;;;;7.93;5.00;;;19.80;1.00;;;;;;5097194;28;20211;-42
2023/07/09 02:31:49;;;;;;;7.73;4.73;;;19.80;1.00;;;;;;5097003;28;20228;-44
2023/07/09 02:34:14;;;;;;;8.37;4.90;;;19.80;1.00;;;;;;5097396;28;20203;-43
2023/07/09 02:36:42;;;;;;;7.20;4.03;;;19.70;1.00;;;;;;5097270;28;20696;-43
2023/07/09 02:39:09;;;;;;;6.50;4.70;;;19.70;1.00;;;;;;5096891;28;20669;-43
2023/07/09 02:41:35;;;;;;;10.13;5.03;;;19.60;1.00;;;;;;5097080;28;20548;-41
2023/07/09 02:44:00;;;;;;;6.80;4.93;;;19.60;1.00;;;;;;5096657;28;20179;-44
2023/07/09 02:46:26;;;;;;;13.87;4.70;;;19.50;1.00;;;;;;5096608;28;20573;-43
2023/07/09 02:48:51;;;;;;;9.37;4.80;;;19.50;1.00;;;;;;5098426;28;20249;-47
2023/07/09 02:51:17;;;;;;;7.13;4.57;;;19.50;1.00;;;;;;5097077;28;20228;-47
2023/07/09 02:53:42;;;;;;;8.57;5.47;;;19.40;1.00;;;;;;5097092;28;20207;-46
2023/07/09 02:56:08;;;;;;;13.60;6.03;;;19.40;1.00;;;;;;5096500;28;20209;-46
2023/07/09 02:58:34;;;;;;;11.50;5.23;;;19.40;1.00;;;;;;5096640;28;20183;-46
2023/07/09 03:00:59;;;;;;;8.57;5.40;;;19.40;1.00;;;;;;5096374;28;20682;-47
2023/07/09 03:03:25;;;;;;;14.17;5.30;;;19.40;1.00;;;;;;5096562;28;20275;-47
2023/07/09 03:05:50;;;;;;;9.93;5.17;;;19.30;1.00;;;;;;5096137;28;20686;-47
2023/07/09 03:08:16;;;;;;;9.17;5.07;;;19.30;1.00;;;;;;5096476;28;20235;-46
2023/07/09 03:10:41;;;;;;;9.03;5.63;;;19.30;1.00;;;;;;5096380;28;20217;-46
2023/07/09 03:13:07;;;;;;;6.20;4.97;;;19.30;1.00;;;;;;5096187;28;20178;-46
2023/07/09 03:15:33;;;;;;;11.10;5.80;;;19.30;1.00;;;;;;5096024;28;20251;-46
2023/07/09 03:17:58;;;;;;;10.63;6.13;;;19.30;1.00;;;;;;5096054;28;20183;-45
2023/07/09 03:20:25;;;;;;;11.87;5.27;;;19.30;1.00;;;;;;5095636;28;20182;-46
2023/07/09 03:22:50;;;;;;;11.17;5.43;;;19.30;1.00;;;;;;5095874;28;20182;-45
2023/07/09 03:25:16;;;;;;;8.13;6.07;;;19.30;1.00;;;;;;5095722;28;20214;-47
2023/07/09 03:27:41;;;;;;;9.57;6.07;;;19.30;1.00;;;;;;5096106;28;20201;-45
2023/07/09 03:30:07;;;;;;;7.67;5.40;;;19.30;1.00;;;;;;5095825;28;20175;-46
2023/07/09 03:32:33;;;;;;;10.60;5.63;;;19.30;1.00;;;;;;5095705;28;20179;-46
2023/07/09 03:34:58;;;;;;;10.53;5.30;;;19.30;1.00;;;;;;5095798;28;20199;-46
2023/07/09 03:37:24;;;;;;;14.77;5.60;;;19.20;1.00;;;;;;5095653;28;20179;-45
2023/07/09 03:39:49;;;;;;;12.67;5.87;;;19.20;1.00;;;;;;5095519;28;20234;-47
2023/07/09 03:42:15;;;;;;;8.70;5.40;;;19.30;1.00;;;;;;5095604;28;20592;-46
2023/07/09 03:44:41;;;;;;;8.37;4.77;;;19.20;1.00;;;;;;5095650;28;20218;-46
2023/07/09 03:47:07;;;;;;;12.27;5.60;;;19.20;1.00;;;;;;5096001;28;20175;-47
2023/07/09 03:49:33;;;;;;;10.90;5.53;;;19.20;1.00;;;;;;5096949;28;20175;-47
2023/07/09 03:51:58;;;;;;;11.47;5.80;;;19.20;1.00;;;;;;5095383;28;20187;-47
2023/07/09 03:54:24;;;;;;;9.73;5.03;;;19.20;1.00;;;;;;5095228;28;20186;-46
2023/07/09 03:56:50;;;;;;;13.50;5.40;;;19.20;1.00;;;;;;5095558;28;20183;-47
2023/07/09 03:59:15;;;;;;;13.13;5.60;;;19.20;1.00;;;;;;5095541;28;20179;-47
2023/07/09 04:01:45;;;;;;;13.13;6.20;;;19.20;1.00;;;;;;5095464;28;20209;-46
2023/07/09 04:04:14;;;;;;;9.23;5.83;;;19.20;1.00;;;;;;5094909;28;20627;-47
2023/07/09 04:06:40;;;;;;;13.33;5.27;;;19.20;1.00;;;;;;5095062;28;20254;-47
2023/07/09 04:09:06;;;;;;;9.67;5.67;;;19.20;1.00;;;;;;5095287;28;20202;-48
2023/07/09 04:11:32;;;;;;;14.50;5.53;;;19.20;1.00;;;;;;5095220;28;20179;-47
2023/07/09 04:13:57;;;;;;;11.47;6.20;;;19.20;1.00;;;;;;5095162;28;20657;-47
2023/07/09 04:16:23;;;;;;;20.63;6.10;;;19.20;1.00;;;;;;5094917;28;20240;-48
2023/07/09 04:18:48;;;;;;;10.50;6.27;;;19.30;1.00;;;;;;5095050;28;20190;-47
2023/07/09 04:21:14;;;;;;;10.87;5.90;;;19.30;1.00;;;;;;5094838;28;20631;-45
2023/07/09 04:23:40;;;;;;;16.23;5.90;;;19.30;1.00;;;;;;5095036;28;20186;-46
2023/07/09 04:26:09;;;;;;;14.90;6.67;;;19.40;1.00;;;;;;5094542;28;20215;-46
2023/07/09 04:28:34;;;;;;;14.07;5.97;;;19.40;1.00;;;;;;5095401;28;20179;-46
2023/07/09 04:31:00;;;;;;;11.80;6.43;;;19.40;1.00;;;;;;5093835;28;20258;-46
2023/07/09 04:33:26;;;;;;;15.40;6.17;;;19.50;1.00;;;;;;5094947;28;20232;-47
2023/07/09 04:35:52;;;;;;;12.53;6.40;;;19.50;1.00;;;;;;5094698;28;20203;-48
2023/07/09 04:38:17;;;;;;;11.70;6.30;;;19.60;1.00;;;;;;5094303;28;20561;-46
2023/07/09 04:40:43;;;;;;;15.60;6.27;;;19.60;1.00;;;;;;5094711;28;20178;-46
2023/07/09 04:43:09;;;;;;;11.17;6.10;;;19.60;1.00;;;;;;5094401;28;20262;-46
2023/07/09 04:45:34;;;;;;;14.20;6.33;;;19.70;1.00;;;;;;5094233;28;20337;-47
2023/07/09 04:48:00;;;;;;;11.30;5.87;;;19.80;1.00;;;;;;5095775;28;20178;-40
2023/07/09 04:50:25;;;;;;;11.73;5.77;;;19.80;1.00;;;;;;5094238;28;20202;-42
2023/07/09 04:52:52;;;;;;;9.43;5.70;;;19.90;1.00;;;;;;5094490;28;20179;-41
2023/07/09 04:55:18;;;;;;;10.47;5.80;;;19.90;1.00;;;;;;5094094;28;20195;-43
2023/07/09 04:57:44;;;;;;;11.70;6.40;;;20.00;1.00;;;;;;5094453;28;20178;-42
2023/07/09 05:00:11;;;;;;;11.30;5.97;;;20.10;1.00;;;;;;5094084;28;20662;-42
2023/07/09 05:02:36;;;;;;;11.13;6.10;;;20.10;1.00;;;;;;5093973;28;20179;-42
2023/07/09 05:05:02;;;;;;;14.83;6.40;;;20.20;1.00;;;;;;5093890;28;20222;-44
2023/07/09 05:07:28;;;;;;;11.20;6.60;;;20.30;1.00;;;;;;5093977;28;20256;-44
2023/07/09 05:09:53;;;;;;;16.00;6.13;;;20.40;1.00;;;;;;5094009;28;20220;-42
2023/07/09 05:12:20;;;;;;;9.23;5.77;;;20.40;1.00;;;;;;5093831;28;20272;-42
2023/07/09 05:14:46;;;;;;;14.37;6.33;;;20.50;1.00;;;;;;5093813;28;20736;-43
2023/07/09 05:17:11;;;;;;;16.23;7.23;;;20.60;1.00;;;;;;5093895;28;20179;-42
2023/07/09 05:19:38;;;;;;;10.47;6.50;;;20.70;1.00;;;;;;5092784;28;20298;-43
2023/07/09 05:22:04;;;;;;;11.27;6.47;;;20.70;1.00;;;;;;5094171;28;20179;-40
2023/07/09 05:24:30;;;;;;;9.67;6.10;;;20.80;1.00;;;;;;5093637;28;21547;-39
2023/07/09 05:26:56;;;;;;;12.87;6.40;;;20.90;1.00;;;;;;5093847;28;20171;-42
2023/07/09 05:29:22;;;;;;;15.43;6.73;;;20.90;1.00;;;;;;5093757;28;20170;-42
2023/07/09 05:31:47;;;;;;;8.53;5.87;;;21.00;1.00;;;;;;5093610;28;20191;-41
2023/07/09 05:34:13;;;;;;;10.27;6.37;;;21.10;1.00;;;;;;5092247;28;20185;-42
2023/07/09 05:36:39;;;;;;;15.43;6.50;;;21.20;1.00;;;;;;5093839;28;20236;-43
2023/07/09 05:39:04;;;;;;;10.40;6.07;;;21.30;1.00;;;;;;5093446;28;20246;-43
2023/07/09 05:41:30;;;;;;;11.60;6.00;;;21.30;1.00;;;;;;5093730;28;20175;-40
2023/07/09 05:43:55;;;;;;;13.30;6.63;;;21.40;1.00;;;;;;5092263;28;20182;-43
2023/07/09 05:46:23;;;;;;;11.47;6.73;;;21.50;1.00;;;;;;5093275;28;20706;-44
2023/07/09 05:48:48;;;;;;;10.80;6.37;;;21.60;1.00;;;;;;5094840;28;20653;-42
2023/07/09 05:51:14;;;;;;;9.40;6.30;;;21.70;1.00;;;;;;5093376;28;20251;-42
2023/07/09 05:53:40;;;;;;;10.43;6.10;;;21.80;1.00;;;;;;5093394;28;20170;-42
2023/07/09 05:56:06;;;;;;;8.97;5.97;;;21.90;1.00;;;;;;5093547;28;20647;-42
2023/07/09 05:58:32;;;;;;;10.17;6.50;;;22.00;1.00;;;;;;5093586;28;20691;-42
2023/07/09 06:00:57;;;;;;;12.80;5.97;;;22.10;1.00;;;;;;5093553;28;20185;-42
2023/07/09 06:03:26;;;;;;;14.97;6.37;;;22.20;1.00;;;;;;5093562;28;20268;-42
2023/07/09 06:05:52;;;;;;;11.30;6.43;;;22.30;1.00;;;;;;5093357;28;20217;-42
2023/07/09 06:08:20;;;;;;;8.00;5.37;;;22.40;1.00;;;;;;5093154;28;20549;-42
2023/07/09 06:11:02;;;;;;;8.67;5.87;;;22.60;1.00;;;;;;5093461;28;20187;-44
2023/07/09 06:13:33;;;;;;;12.13;5.73;;;22.70;1.00;;;;;;5093470;28;20151;-41
2023/07/09 06:15:59;;;;;;;11.83;5.93;;;22.80;1.00;;;;;;5093147;28;20192;-40
2023/07/09 06:18:29;;;;;;;11.47;5.57;;;22.90;1.00;;;;;;5093437;28;20186;-43
2023/07/09 06:20:57;;;;;;;10.10;6.00;;;23.10;1.00;;;;;;5091863;28;20179;-42
2023/07/09 06:23:22;;;;;;;19.63;5.57;;;23.20;1.00;;;;;;5093045;28;20171;-40
2023/07/09 06:25:48;;;;;;;7.97;5.50;;;23.40;1.00;;;;;;5092900;28;20293;-41
2023/07/09 06:28:19;;;;;;;13.23;5.77;;;23.50;1.00;;;;;;5093004;28;20684;-42
2023/07/09 06:30:45;;;;;;;9.10;5.53;;;23.70;1.00;;;;;;5093233;28;20179;-42
2023/07/09 06:33:13;;;;;;;9.70;5.07;;;23.90;1.00;;;;;;5093003;28;20171;-41
2023/07/09 06:35:45;;;;;;;7.70;5.27;;;24.10;1.00;;;;;;5092957;28;20191;-42
2023/07/09 06:38:11;;;;;;;10.50;5.87;;;24.20;99.90;;;;;;5093052;28;20194;-41
2023/07/09 06:40:36;;;;;;;9.33;5.60;;;24.40;99.90;;;;;;5093237;28;20175;-43
2023/07/09 06:43:02;;;;;;;9.87;5.80;;;24.70;99.90;;;;;;5092892;28;20204;-43
2023/07/09 06:45:27;;;;;;;6.30;4.63;;;24.80;99.90;;;;;;5092794;28;20576;-42
2023/07/09 06:47:53;;;;;;;8.27;4.93;;;24.90;1.00;;;;;;5093133;28;20228;-42
2023/07/09 06:50:19;;;;;;;8.20;5.07;;;25.10;1.00;;;;;;5094415;28;20167;-47
2023/07/09 06:52:45;;;;;;;8.27;5.07;;;25.20;1.00;;;;;;5092809;28;20194;-47
2023/07/09 06:55:10;;;;;;;7.67;5.30;;;25.50;1.00;;;;;;5094834;28;20199;-47
2023/07/09 06:57:37;;;;;;;11.77;5.20;;;25.70;99.90;;;;;;5097062;28;20217;-46
2023/07/09 07:00:03;;;;;;;10.80;5.53;;;25.80;99.90;;;;;;5096433;28;20175;-48
2023/07/09 07:02:29;;;;;;;7.57;5.40;;;26.00;1.00;;;;;;5096367;28;20183;-49
2023/07/09 07:04:55;;;;;;;7.63;5.43;;;26.20;99.90;;;;;;5096388;28;20713;-48
2023/07/09 07:07:20;;;;;;;7.80;4.90;;;26.30;1.00;;;;;;5097012;28;20530;-47
2023/07/09 07:09:46;;;;;;;6.53;4.60;;;26.50;1.00;;;;;;5096596;28;20200;-49
2023/07/09 07:12:27;;;;;;;6.33;4.67;;;26.60;15.00;;;;;;5096464;28;20182;-50
2023/07/09 07:14:53;;;;;;;8.07;5.03;;;26.80;1.00;;;;;;5096057;28;20251;-49
2023/07/09 07:17:19;;;;;;;8.73;4.67;;;27.00;1.00;;;;;;5096067;28;20185;-49
2023/07/09 07:19:45;;;;;;;9.10;4.90;;;27.10;1.00;;;;;;5096027;28;20171;-48
2023/07/09 07:22:10;;;;;;;9.27;5.43;;;27.30;99.90;;;;;;5096218;28;20201;-48
2023/07/09 07:24:36;;;;;;;5.80;4.30;;;27.30;99.90;;;;;;5095882;28;20298;-48
2023/07/09 07:27:02;;;;;;;8.50;4.57;;;27.50;1.00;;;;;;5095955;28;20635;-47
2023/07/09 07:29:27;;;;;;;8.83;5.07;;;27.60;1.00;;;;;;5096138;28;20281;-49
2023/07/09 07:31:54;;;;;;;9.57;4.40;;;27.70;1.00;;;;;;5096073;28;20665;-49
2023/07/09 07:34:20;;;;;;;10.33;4.20;;;27.90;1.00;;;;;;5095699;28;20235;-48
2023/07/09 07:36:47;;;;;;;7.33;5.00;;;28.00;1.00;;;;;;5096033;28;20175;-48
2023/07/09 07:39:12;;;;;;;11.10;4.83;;;28.20;99.90;;;;;;5095647;28;20190;-49
2023/07/09 07:41:38;;;;;;;6.97;4.83;;;28.30;99.90;;;;;;5095585;28;20639;-49
2023/07/09 07:44:04;;;;;;;6.93;5.20;;;28.50;1.00;;;;;;5095869;28;20695;-49
2023/07/09 07:46:32;;;;;;;10.43;5.27;;;28.60;23.30;;;;;;5095330;28;20207;-49
2023/07/09 07:48:57;;;;;;;6.40;4.47;;;28.70;1.00;;;;;;5097300;28;20171;-42
2023/07/09 07:51:23;;;;;;;5.93;4.40;;;28.80;99.90;;;;;;5095642;28;20309;-44
2023/07/09 07:53:49;;;;;;;6.00;4.50;;;28.90;99.90;;;;;;5095635;28;20198;-43
2023/07/09 07:56:14;;;;;;;6.77;4.17;;;29.00;1.00;;;;;;5095513;28;20222;-43
2023/07/09 07:58:40;;;;;;;9.40;4.47;;;29.30;1.00;;;;;;5095529;28;20179;-44
2023/07/09 08:01:06;;;;;;;8.07;4.90;;;29.40;1.00;;;;;;5095508;28;20574;-44
2023/07/09 08:03:31;;;;;;;7.23;4.60;;;29.60;1.00;;;;;;5095136;28;20171;-43
2023/07/09 08:05:57;;;;;;;6.87;5.10;;;29.80;1.00;;;;;;5095030;28;20215;-44
2023/07/09 08:08:23;;;;;;;8.80;4.70;;;29.90;1.00;;;;;;5095090;28;20181;-46
2023/07/09 08:10:50;;;;;;;7.13;4.23;;;30.00;33.40;;;;;;5095015;28;20174;-43
2023/07/09 08:13:15;;;;;;;6.13;4.53;;;30.10;1.00;;;;;;5095081;28;20656;-44
2023/07/09 08:15:42;;;;;;;16.73;4.90;;;30.30;99.90;;;;;;5094831;28;20221;-45
2023/07/09 08:18:08;;;;;;;6.83;4.70;;;30.30;1.00;;;;;;5095150;28;20190;-43
2023/07/09 08:20:33;;;;;;;5.90;4.40;;;30.50;99.90;;;;;;5094837;28;20659;-45
2023/07/09 08:22:59;;;;;;;7.30;4.78;;;30.50;99.90;;;;;;5094815;28;20266;-44
2023/07/09 08:25:25;;;;;;;7.05;4.40;;;30.70;1.00;;;;;;5094600;28;20255;-45
2023/07/09 08:27:50;;;;;;;6.80;4.18;;;30.80;99.90;;;;;;5094782;28;20258;-44
2023/07/09 08:30:16;;;;;;;7.07;4.35;;;31.00;99.90;;;;;;5094750;28;20666;-44
2023/07/09 08:32:41;;;;;;;10.70;3.78;;;31.20;99.90;;;;;;5094683;28;20536;-43
2023/07/09 08:35:10;;;;;;;7.53;3.97;;;31.30;99.90;;;;;;5094999;28;20207;-43
2023/07/09 08:37:35;;;;;;;5.90;3.85;;;31.50;99.90;;;;;;5094663;28;20615;-43
2023/07/09 08:40:01;;;;;;;8.60;4.45;;;31.60;99.90;;;;;;5094703;28;20190;-45
2023/07/09 08:42:49;;;;;;;5.60;3.83;;;31.80;1.00;;;;;;5094795;28;20670;-44
2023/07/09 08:45:17;;;;;;;5.03;4.07;;;32.00;1.00;;;;;;5094322;28;20194;-43
2023/07/09 08:48:09;;;;;;;7.15;3.75;;;32.00;99.90;;;;;;5094521;28;20175;-44
2023/07/09 08:50:45;;;;;;;9.40;4.38;;;32.10;99.90;;;;;;5094430;28;20614;-43
2023/07/09 08:53:39;;;;;;;10.50;4.35;;;32.20;99.90;;;;;;5094585;28;20170;-43
2023/07/09 08:56:09;;;;;;;7.53;3.67;;;32.20;99.90;;;;;;5094109;28;20199;-45
2023/07/09 08:58:36;;;;;;;6.45;3.88;;;32.40;99.90;;;;;;5094453;28;20171;-45
2023/07/09 09:01:06;;;;;;;9.57;4.43;;;32.50;99.90;;;;;;5094080;28;20266;-44
2023/07/09 09:03:48;;;;;;;7.13;4.25;;;32.50;99.90;;;;;;5094484;28;20175;-45
2023/07/09 09:06:29;;;;;;;7.10;4.15;;;32.70;99.90;;;;;;5093882;28;20195;-44
2023/07/09 09:09:03;;;;;;;7.88;4.35;;;32.80;99.90;;;;;;5094185;28;20177;-44
2023/07/09 09:11:51;;;;;;;6.13;4.00;;;32.90;99.90;;;;;;5093988;28;20516;-43
2023/07/09 09:14:39;;;;;;;6.05;4.05;;;33.10;99.90;;;;;;5094041;28;20643;-44
2023/07/09 09:17:14;;;;;;;6.05;4.18;;;33.20;99.90;;;;;;5093599;28;20175;-44
2023/07/09 09:20:00;;;;;;;7.55;4.10;;;33.30;99.90;;;;;;5093992;28;20155;-46
2023/07/09 09:22:36;;;;;;;7.75;4.47;;;33.50;99.90;;;;;;5093726;28;20175;-45
2023/07/09 09:25:33;;;;;;;9.77;3.90;;;33.60;99.90;;;;;;5093806;28;20571;-43
2023/07/09 09:28:03;;;;;;;6.88;4.40;;;33.70;99.90;;;;;;5093937;28;20710;-44
2023/07/09 09:30:29;;;;;;;6.93;4.07;;;33.80;2.00;;;;;;5093628;28;20745;-44
2023/07/09 09:32:57;;;;;;;8.82;4.05;;;33.80;99.90;;;;;;5093823;28;20200;-43
2023/07/09 09:35:35;;;;;;;9.48;4.15;;;34.00;1.00;;;;;;5093472;28;20195;-45
2023/07/09 09:38:02;;;;;;;6.70;4.00;;;34.00;12.10;;;;;;5093160;28;20190;-45
2023/07/09 09:40:33;;;;;;;7.70;4.03;;;34.20;1.00;;;;;;5093643;28;20212;-45
2023/07/09 09:43:00;;;;;;;9.40;3.88;;;34.30;28.00;;;;;;5093368;28;20667;-43
2023/07/09 09:45:35;;;;;;;7.88;4.20;;;34.40;1.00;;;;;;5093565;28;20248;-44
2023/07/09 09:48:12;;;;;;;4.82;3.28;;;34.50;1.00;;;;;;5094508;28;20177;-45
2023/07/09 09:50:40;;;;;;;5.32;4.13;;;34.60;1.00;;;;;;5093701;28;20167;-49
2023/07/09 09:53:08;;;;;;;8.57;4.10;;;34.60;1.00;;;;;;5093897;28;20258;-50
2023/07/09 09:55:34;;;;;;;12.52;3.90;;;34.80;1.00;;;;;;5093373;28;20224;-50
2023/07/09 09:58:02;;;;;;;6.82;4.20;;;34.80;1.00;;;;;;5093556;28;20257;-50
2023/07/09 10:00:29;;;;;;;7.38;4.32;;;34.90;1.00;;;;;;5093600;28;20296;-51
2023/07/09 10:03:05;;;;;;;9.18;4.18;;;35.00;1.00;;;;;;5093243;28;20179;-51
2023/07/09 10:05:59;;;;;;;10.07;4.15;;;35.10;1.00;;;;;;5093375;28;20214;-50
2023/07/09 10:08:48;;;;;;;6.75;3.72;;;35.20;1.00;;;;;;5093215;28;20194;-50
2023/07/09 10:11:42;;;;;;;7.32;3.67;;;35.20;1.00;;;;;;5093518;28;20220;-51
2023/07/09 10:14:26;;;;;;;5.60;3.90;;;35.30;1.00;;;;;;5093478;28;20206;-51
2023/07/09 10:16:59;;;;;;;6.05;3.90;;;35.40;1.00;;;;;;5093710;28;20539;-50
2023/07/09 10:19:33;;;;;;;8.50;4.15;;;35.30;1.00;;;;;;5093714;28;20179;-51
2023/07/09 10:22:32;;;;;;;5.97;3.80;;;35.50;1.00;;;;;;5093414;28;20182;-51
2023/07/09 10:25:37;;;;;;;7.10;3.58;;;35.60;1.00;;;;;;5091967;28;20218;-51
2023/07/09 10:28:31;;;;;;;6.80;3.83;;;35.90;1.00;;;;;;5093632;28;20551;-51
2023/07/09 10:31:15;;;;;;;6.97;3.33;;;36.10;1.00;;;;;;5096908;28;20280;-51
2023/07/09 10:33:53;;;;;;;8.75;4.13;;;36.10;1.00;;;;;;5097186;28;20170;-51
2023/07/09 10:36:27;;;;;;;6.07;3.50;;;36.20;1.00;;;;;;5097169;28;20198;-51
2023/07/09 10:39:18;;;;;;;7.43;3.90;;;36.40;1.00;;;;;;5096924;28;20197;-51
2023/07/09 10:41:45;;;;;;;4.20;3.22;;;36.50;1.00;;;;;;5096863;28;20168;-51
2023/07/09 10:44:44;;;;;;;8.30;3.80;;;36.60;1.00;;;;;;5096972;28;20183;-51
2023/07/09 10:47:23;;;;;;;7.68;3.83;;;36.60;1.00;;;;;;5096575;28;20280;-50
2023/07/09 10:49:50;;;;;;;6.32;3.80;;;36.60;1.00;;;;;;5097903;28;20189;-45
2023/07/09 10:52:36;;;;;;;5.28;3.72;;;36.70;1.00;;;;;;5096818;28;20199;-44
2023/07/09 10:55:18;;;;;;;4.75;3.60;;;36.70;1.00;;;;;;5096484;28;20190;-44
2023/07/09 10:58:15;;;;;;;7.10;3.60;;;36.80;1.00;;;;;;5096755;28;20159;-44
2023/07/09 11:00:42;;;;;;;7.18;3.75;;;36.90;1.00;;;;;;5097010;28;20159;-45
2023/07/09 11:03:16;;;;;;;5.90;3.30;;;37.00;1.00;;;;;;5096413;28;20224;-45
2023/07/09 11:05:42;;;;;;;6.65;3.35;;;37.10;1.00;;;;;;5096187;28;20709;-44
2023/07/09 11:08:14;;;;;;;3.60;3.03;;;37.30;1.00;;;;;;5096564;28;20182;-45
2023/07/09 11:10:52;;;;;;;7.30;3.28;;;37.50;1.00;;;;;;5096240;28;20205;-45
2023/07/09 11:13:37;;;;;;;8.07;3.83;;;37.50;1.00;;;;;;5096483;28;20177;-45
2023/07/09 11:16:06;;;;;;;5.00;2.83;;;37.60;1.00;;;;;;5096335;28;20198;-45
2023/07/09 11:18:33;;;;;;;4.93;3.05;;;37.60;1.00;;;;;;5096327;28;20312;-45
2023/07/09 11:21:16;;;;;;;8.13;3.22;;;37.80;1.00;;;;;;5095968;28;20189;-44
2023/07/09 11:23:59;;;;;;;6.75;2.92;;;37.90;1.00;;;;;;5096593;28;20159;-46
2023/07/09 11:26:28;;;;;;;4.20;2.85;;;38.00;1.00;;;;;;5095843;28;20237;-45
2023/07/09 11:29:17;;;;;;;7.03;2.97;;;38.10;1.00;;;;;;5096146;28;20193;-45
2023/07/09 11:31:47;;;;;;;5.07;2.80;;;38.20;1.00;;;;;;5095471;28;20279;-44
2023/07/09 11:34:12;;;;;;;6.75;3.08;;;38.30;1.00;;;;;;5095803;28;20163;-45
2023/07/09 11:36:59;;;;;;;5.40;3.00;;;38.30;1.00;;;;;;5096027;28;20329;-45
2023/07/09 11:39:41;;;;;;;5.28;2.95;;;38.30;1.00;;;;;;5095524;28;20194;-45
2023/07/09 11:42:31;;;;;;;6.03;2.83;;;38.40;1.00;;;;;;5095681;28;20190;-44
2023/07/09 11:45:19;;;;;;;6.63;3.10;;;38.50;1.00;;;;;;5096177;28;20614;-45
2023/07/09 11:47:55;;;;;;;5.97;2.85;;;38.60;1.00;;;;;;5095530;28;20543;-43
2023/07/09 11:50:23;;;;;;;5.15;2.85;;;38.60;1.00;;;;;;5096537;28;20159;-45
2023/07/09 11:53:17;;;;;;;4.35;2.90;;;38.80;1.00;;;;;;5095717;28;20254;-44
2023/07/09 11:55:45;;;;;;;8.55;2.90;;;39.10;1.00;;;;;;5094774;28;20214;-44
2023/07/09 11:58:13;;;;;;;3.83;2.75;;;39.10;1.00;;;;;;5095387;28;20178;-45
2023/07/09 12:00:40;;;;;;;6.45;2.50;;;39.10;1.00;;;;;;5096050;28;20183;-45
2023/07/09 12:03:11;;;;;;;4.07;2.75;;;39.20;1.00;;;;;;5095250;28;20175;-44
2023/07/09 12:05:37;;;;;;;5.10;2.70;;;39.20;1.00;;;;;;5095362;28;20199;-44
2023/07/09 12:08:07;;;;;;;6.53;3.10;;;39.20;1.00;;;;;;5095426;28;20202;-45
2023/07/09 12:10:35;;;;;;;3.28;2.70;;;39.10;1.00;;;;;;5095065;28;20175;-45
2023/07/09 12:13:03;;;;;;;6.88;3.15;;;39.10;1.00;;;;;;5095098;28;20508;-44
2023/07/09 12:15:31;;;;;;;4.53;2.80;;;39.00;1.00;;;;;;5095207;28;20210;-44
2023/07/09 12:18:09;;;;;;;3.83;2.80;;;39.00;1.00;;;;;;5094998;28;20198;-44
2023/07/09 12:20:35;;;;;;;8.88;3.17;;;39.00;1.00;;;;;;5095224;28;20251;-44
2023/07/09 12:23:25;;;;;;;6.53;3.00;;;38.90;1.00;;;;;;5094855;28;20179;-44
2023/07/09 12:25:51;;;;;;;4.97;2.60;;;38.80;1.00;;;;;;5094781;28;20754;-44
2023/07/09 12:28:18;;;;;;;5.78;2.88;;;38.70;1.00;;;;;;5093493;28;20210;-45
2023/07/09 12:30:52;;;;;;;8.57;3.13;;;38.60;1.00;;;;;;5094950;28;20228;-43
2023/07/09 12:33:20;;;;;;;4.60;2.67;;;38.60;1.00;;;;;;5094715;28;20179;-44
2023/07/09 12:35:47;;;;;;;3.58;2.53;;;38.70;1.00;;;;;;5095217;28;20226;-44
2023/07/09 12:38:41;;;;;;;5.45;3.03;;;38.50;1.00;;;;;;5094452;28;20603;-44
2023/07/09 12:41:18;;;;;;;6.05;2.63;;;38.40;1.00;;;;;;5093279;28;20213;-45
2023/07/09 12:43:44;;;;;;;4.45;2.63;;;38.20;1.00;;;;;;5094493;28;20246;-45
2023/07/09 12:46:10;;;;;;;3.90;3.00;;;38.10;1.00;;;;;;5094538;28;20293;-43
2023/07/09 12:48:37;;;;;;;4.30;2.80;;;38.00;1.00;;;;;;5095379;28;20289;-50
2023/07/09 12:51:08;;;;;;;4.60;3.17;;;37.90;1.00;;;;;;5094264;28;20601;-44
2023/07/09 12:53:33;;;;;;;6.85;3.15;;;37.50;1.00;;;;;;5094207;28;20547;-45
2023/07/09 12:56:01;;;;;;;7.70;3.15;;;37.00;1.00;;;;;;5094080;28;20248;-46
2023/07/09 12:58:37;;;;;;;4.00;3.13;;;36.60;1.00;;;;;;5094490;28;20283;-45
2023/07/09 13:01:13;;;;;;;8.55;3.28;;;36.10;1.00;;;;;;5094699;28;20635;-44
2023/07/09 13:03:39;;;;;;;8.40;3.30;;;35.70;1.00;;;;;;5094348;28;20171;-45
2023/07/09 13:06:29;;;;;;;9.73;3.80;;;35.40;1.00;;;;;;5094740;28;20544;-44
2023/07/09 13:08:59;;;;;;;5.20;2.97;;;35.00;1.00;;;;;;5093601;28;20218;-44